KRUTKBTV

Guest
Details From KRUT - Rutland State
To KBTV - Burlington Intl
Flight Number -
Tags Routegen
Created
Modified
Stats Distance 58 nm / 108 km
Max Altitude 0 ft / 0 m
Waypoints 2
Social Downloads 3
Likes 0
Share VATSIM

Download

Looking for another format? Having issues loading an existing format? Contact us
Advertisement - Login to hide

Notes

None

Route

KRUT KBTV

ID Type Via Altitude Latitude Longitude Leg Dist Tot Dist Heading (true) Name
O KRUT APT - 0 ft / 0 m 43.52488˚ -72.94948˚ - 0 nm - -
O KBTV APT - 0 ft / 0 m 44.48068˚ -73.16588˚ 58 nm 58 nm 351° / 351° -

Altitude Profile

Advertisement - Login to hide

KRUT

Details ICAO KRUT (RUT)
Name RUTLAND STATE
Region United States
Timezone America/New_York (UTC-4.0)
Stats Elevation 787 ft / 240 m (AMSL)
Location 43.529381° -72.949582°
Runways 2
Magnetic Variation 14.110° W

METAR

KRUT 240556Z AUTO 00000KT 10SM CLR 10/07 A3005 RMK AO2 SLP190 T01000067 10200 20100 53014 $

Decode

TAF

TAF KRUT 240520Z 2406/2506 13005KT P6SM SCT250 FM241400 33007KT P6SM FEW250 FM250000 13005KT P6SM SKC

Decode

Departure Runways

ID Width Length Bearing (true) Bearing (mag) Surface Threshold Offset Overrun Length
01 100 ft / 30 m 5,005 ft / 1,526 m 358.50° 12.61° Asphalt 0 ft / 0 m 0 ft / 0 m
13 75 ft / 23 m 3,164 ft / 965 m 118.72° 132.83° Asphalt 0 ft / 0 m 0 ft / 0 m
19 100 ft / 30 m 5,005 ft / 1,526 m 178.50° 192.61° Asphalt 0 ft / 0 m 0 ft / 0 m
31 75 ft / 23 m 3,164 ft / 965 m 298.72° 312.83° Asphalt 0 ft / 0 m 0 ft / 0 m

KBTV

Details ICAO KBTV (BTV)
Name BURLINGTON INTL
Region United States
Timezone America/New_York (UTC-4.0)
Stats Elevation 334 ft / 102 m (AMSL)
Location 44.471252° -73.153113°
Runways 2
Magnetic Variation 14.281° W

METAR

KBTV 240554Z AUTO 35003KT 10SM CLR 13/01 A3003 RMK AO2 SLP168 T01330011 10211 20133 51013

Decode

TAF

TAF KBTV 240520Z 2406/2506 33005KT P6SM FEW150 SCT250 FM241900 28007KT P6SM FEW250 FM242200 20006KT P6SM SKC

Decode

Destination Runways

ID Width Length Bearing (true) Bearing (mag) Surface Threshold Offset Overrun Length
01 75 ft / 23 m 4,115 ft / 1,254 m 351.45° 5.73° Asphalt 226 ft / 69 m 0 ft / 0 m
15 150 ft / 46 m 8,311 ft / 2,533 m 130.91° 145.19° Asphalt 0 ft / 0 m 1,004 ft / 306 m
19 75 ft / 23 m 4,115 ft / 1,254 m 171.45° 185.73° Asphalt 505 ft / 154 m 0 ft / 0 m
33 150 ft / 46 m 8,311 ft / 2,533 m 310.93° 325.21° Asphalt 502 ft / 153 m 522 ft / 159 m

Approach Navaids

Runway Type Ident Frequency Range Bearing (true) Bearing (mag) Slope Elevation
15 Localiser IBTV 110.30 MHz 18 nm / 33 km 130.92° 145.20° - 331 ft / 101 m (AMSL)
15 Glidescope IBTV 110.30 MHz 10 nm / 19 km 130.92° 145.20° 3.00° 308 ft / 94 m (AMSL)
15 DME IBTV 110.30 MHz 18 nm / 33 km - - - 339 ft / 103 m (AMSL)
33 Localiser IVOE 110.30 MHz 18 nm / 33 km 310.90° 325.19° - 294 ft / 90 m (AMSL)
33 Glidescope IVOE 110.30 MHz 10 nm / 19 km 310.92° 325.20° 3.20° 334 ft / 102 m (AMSL)
33 DME IVOE 110.30 MHz 18 nm / 33 km - - - 342 ft / 104 m (AMSL)

Popular Alternatives